createdAt,value
2018-07-15T00:00:02.463Z,72.10
2018-07-15T00:02:31.836Z,72.30
2018-07-15T00:05:01.183Z,73.30
2018-07-15T00:07:31.582Z,72.80
2018-07-15T00:10:00.838Z,72.50
2018-07-15T00:12:30.274Z,72.70
2018-07-15T00:14:59.635Z,72.50
2018-07-15T00:17:28.857Z,73.60
2018-07-15T00:19:58.101Z,73.30
2018-07-15T00:22:27.569Z,72.70
2018-07-15T00:24:56.900Z,73.40
2018-07-15T00:27:26.160Z,73.00
2018-07-15T00:29:55.476Z,73.30
2018-07-15T00:32:25.850Z,72.00
2018-07-15T00:34:55.123Z,72.70
2018-07-15T00:37:24.497Z,72.80
2018-07-15T00:39:53.742Z,72.00
2018-07-15T00:42:23.025Z,72.50
2018-07-15T00:44:52.374Z,71.30
2018-07-15T00:47:21.783Z,71.10
2018-07-15T00:49:51.145Z,71.20
2018-07-15T00:52:20.414Z,72.10
2018-07-15T00:54:49.766Z,71.20
2018-07-15T00:57:19.140Z,71.50
2018-07-15T00:59:48.575Z,71.70
2018-07-15T01:02:17.973Z,72.10
2018-07-15T01:04:47.420Z,72.00
2018-07-15T01:07:16.724Z,71.60
2018-07-15T01:09:45.981Z,71.70
2018-07-15T01:12:15.398Z,72.20
2018-07-15T01:14:44.639Z,72.80
2018-07-15T01:17:13.982Z,73.40
2018-07-15T01:19:43.342Z,74.10
2018-07-15T01:22:12.701Z,75.10
2018-07-15T01:24:41.975Z,75.10
2018-07-15T01:27:11.296Z,74.40
2018-07-15T01:29:40.515Z,75.20
2018-07-15T01:32:09.944Z,75.80
2018-07-15T01:34:39.305Z,75.70
2018-07-15T01:37:08.702Z,75.40
2018-07-15T01:39:38.130Z,76.00
2018-07-15T01:42:08.425Z,75.90
2018-07-15T01:44:37.833Z,76.10
2018-07-15T01:47:07.230Z,76.50
2018-07-15T01:49:36.531Z,77.00
2018-07-15T01:52:05.915Z,77.10
2018-07-15T01:54:35.464Z,77.40
2018-07-15T01:57:04.760Z,77.80
2018-07-15T01:59:34.237Z,78.30
2018-07-15T02:02:03.602Z,78.80
2018-07-15T02:04:33.700Z,79.20
2018-07-15T02:07:02.921Z,79.40
2018-07-15T02:09:32.173Z,80.60
2018-07-15T02:12:01.470Z,80.00
2018-07-15T02:14:30.676Z,80.70
2018-07-15T02:17:00.287Z,80.70
2018-07-15T02:19:29.625Z,82.20
2018-07-15T02:21:58.929Z,81.90
2018-07-15T02:24:27.985Z,81.80
2018-07-15T02:26:57.189Z,81.90
2018-07-15T02:29:26.437Z,82.10
2018-07-15T02:31:55.888Z,82.20
2018-07-15T02:34:25.219Z,82.40
2018-07-15T02:36:55.167Z,82.80
2018-07-15T02:39:24.387Z,82.80
2018-07-15T02:41:53.727Z,83.10
2018-07-15T02:44:22.979Z,84.10
2018-07-15T02:46:52.211Z,84.70
2018-07-15T02:49:21.574Z,85.30
2018-07-15T02:51:51.003Z,85.10
2018-07-15T02:54:20.267Z,85.40
2018-07-15T02:56:49.454Z,84.90
2018-07-15T02:59:18.800Z,85.10
2018-07-15T03:01:48.183Z,85.50
2018-07-15T03:04:17.636Z,86.30
2018-07-15T03:06:47.009Z,85.20
2018-07-15T03:09:16.468Z,85.10
2018-07-15T03:11:46.300Z,84.70
2018-07-15T03:14:15.712Z,84.70
2018-07-15T03:16:45.035Z,85.50
2018-07-15T03:19:14.558Z,85.30
2018-07-15T03:21:43.806Z,85.80
2018-07-15T03:24:13.055Z,86.60
2018-07-15T03:26:42.306Z,86.20
2018-07-15T03:29:11.537Z,86.10
2018-07-15T03:31:41.759Z,86.40
2018-07-15T03:34:11.356Z,86.30
2018-07-15T03:36:40.443Z,86.80
2018-07-15T03:39:10.516Z,87.00
2018-07-15T03:41:39.675Z,87.60
2018-07-15T03:44:09.109Z,87.70
2018-07-15T03:46:38.341Z,88.20
2018-07-15T03:49:07.578Z,88.80
2018-07-15T03:51:36.753Z,89.30
2018-07-15T03:54:05.990Z,89.50
2018-07-15T03:56:35.395Z,89.90
2018-07-15T03:59:04.720Z,90.00
2018-07-15T04:01:34.114Z,90.00
2018-07-15T04:04:04.071Z,90.00
2018-07-15T04:06:33.673Z,89.90
2018-07-15T04:09:03.088Z,89.50
2018-07-15T04:11:32.315Z,89.50
2018-07-15T04:14:01.614Z,89.10
2018-07-15T04:16:30.937Z,89.00
2018-07-15T04:19:00.182Z,89.40
2018-07-15T04:21:29.534Z,91.00
2018-07-15T04:23:58.815Z,90.60
2018-07-15T04:26:28.162Z,90.80
2018-07-15T04:28:57.445Z,90.00
2018-07-15T04:31:26.814Z,90.10
2018-07-15T04:33:56.173Z,88.60
2018-07-15T04:36:25.354Z,88.00
2018-07-15T04:38:54.529Z,88.80
2018-07-15T04:41:23.818Z,88.30
2018-07-15T04:43:53.633Z,87.90
2018-07-15T04:46:23.016Z,87.90
2018-07-15T04:48:52.234Z,88.50
2018-07-15T04:51:21.344Z,89.40
2018-07-15T04:53:50.723Z,88.60
2018-07-15T04:56:19.896Z,88.10
2018-07-15T04:58:49.169Z,87.40
2018-07-15T05:01:19.392Z,87.10
2018-07-15T05:03:48.732Z,87.30
2018-07-15T05:06:18.551Z,86.90
2018-07-15T05:08:47.832Z,87.00
2018-07-15T05:11:17.292Z,86.10
2018-07-15T05:16:15.436Z,85.90
2018-07-15T05:18:44.750Z,85.20
2018-07-15T05:21:14.136Z,85.00
2018-07-15T05:23:43.322Z,85.90
2018-07-15T05:26:12.596Z,85.40
2018-07-15T05:28:41.901Z,84.60
2018-07-15T05:31:11.056Z,84.60
2018-07-15T05:33:40.438Z,83.70
2018-07-15T05:36:09.575Z,84.00
2018-07-15T05:38:39.831Z,83.30
2018-07-15T05:41:09.404Z,83.20
2018-07-15T05:43:38.655Z,82.80
2018-07-15T05:46:07.970Z,82.50
2018-07-15T05:48:37.983Z,81.40
2018-07-15T05:51:08.053Z,80.60
2018-07-15T05:53:37.526Z,80.20
2018-07-15T05:56:06.866Z,80.20
2018-07-15T05:58:36.189Z,80.40
2018-07-15T06:01:05.585Z,79.70
2018-07-15T06:03:34.888Z,80.10
2018-07-15T06:06:04.051Z,81.20
2018-07-15T06:08:33.279Z,80.10
2018-07-15T06:11:02.741Z,79.80
2018-07-15T06:13:32.014Z,80.10
2018-07-15T06:16:01.454Z,78.60
2018-07-15T06:18:30.685Z,78.10
2018-07-15T06:20:59.938Z,78.10
2018-07-15T06:23:34.303Z,78.20
2018-07-15T06:26:03.593Z,77.60
2018-07-15T06:28:32.970Z,77.30
2018-07-15T06:31:02.376Z,77.00
2018-07-15T06:33:32.550Z,76.40
2018-07-15T06:36:01.875Z,76.10
2018-07-15T06:38:31.221Z,75.40
2018-07-15T06:41:00.414Z,73.90
2018-07-15T06:43:30.086Z,74.80
2018-07-15T06:45:59.376Z,71.60
2018-07-15T06:48:28.750Z,71.50
2018-07-15T06:50:57.909Z,69.20
2018-07-15T06:53:27.255Z,68.90
2018-07-15T06:55:56.599Z,66.30
2018-07-15T06:58:26.350Z,63.50
2018-07-15T07:00:55.591Z,62.30
2018-07-15T07:03:25.164Z,61.20
2018-07-15T07:05:54.590Z,60.00
2018-07-15T07:08:23.904Z,59.10
2018-07-15T07:10:53.114Z,58.80
2018-07-15T07:13:22.246Z,57.90
2018-07-15T07:15:51.570Z,57.40
2018-07-15T07:18:20.810Z,55.80
2018-07-15T07:20:50.007Z,53.80
2018-07-15T07:23:19.198Z,52.20
2018-07-15T07:25:48.543Z,50.00
2018-07-15T07:28:17.765Z,47.40
2018-07-15T07:30:47.002Z,45.70
2018-07-15T07:33:16.428Z,44.60
2018-07-15T07:35:45.761Z,42.40
2018-07-15T07:38:15.380Z,40.70
2018-07-15T07:40:44.602Z,39.90
2018-07-15T07:43:14.006Z,40.00
2018-07-15T07:45:43.340Z,40.10
2018-07-15T07:48:13.521Z,38.20
2018-07-15T07:50:43.721Z,37.40
2018-07-15T07:53:13.135Z,36.90
2018-07-15T07:55:42.759Z,36.50
2018-07-15T07:58:11.953Z,35.50
2018-07-15T08:00:41.316Z,35.40
2018-07-15T08:03:10.673Z,33.50
2018-07-15T08:05:40.005Z,32.40
2018-07-15T08:08:09.218Z,33.70
2018-07-15T08:10:38.651Z,33.30
2018-07-15T08:13:07.773Z,33.40
2018-07-15T08:15:36.981Z,33.70
2018-07-15T08:18:06.327Z,31.30
2018-07-15T08:20:35.486Z,31.20
2018-07-15T08:23:04.870Z,31.50
2018-07-15T08:25:34.088Z,30.00
2018-07-15T08:28:03.324Z,30.30
2018-07-15T08:30:43.220Z,28.70
2018-07-15T08:33:12.344Z,28.60
2018-07-15T08:35:41.542Z,28.90
2018-07-15T08:38:11.002Z,29.40
2018-07-15T08:40:40.357Z,30.20
2018-07-15T08:43:09.539Z,30.30
2018-07-15T08:45:38.725Z,29.70
2018-07-15T08:48:07.987Z,30.00
2018-07-15T08:50:37.285Z,29.00
2018-07-15T08:53:06.341Z,28.60
2018-07-15T08:55:36.549Z,29.20
2018-07-15T08:58:05.927Z,29.70
2018-07-15T09:00:35.125Z,29.80
2018-07-15T09:03:04.494Z,30.30
2018-07-15T09:05:33.875Z,31.10
2018-07-15T09:08:03.141Z,32.10
2018-07-15T09:10:32.421Z,33.50
2018-07-15T09:13:01.762Z,33.80
2018-07-15T09:15:31.693Z,34.60
2018-07-15T09:18:01.050Z,32.40
2018-07-15T09:20:30.306Z,32.60
2018-07-15T09:23:00.165Z,32.70
2018-07-15T09:25:29.775Z,34.50
2018-07-15T09:27:59.508Z,34.00
2018-07-15T09:30:28.728Z,32.90
2018-07-15T09:32:57.975Z,31.90
2018-07-15T09:35:27.359Z,31.50
2018-07-15T09:37:56.524Z,31.60
2018-07-15T09:40:25.789Z,32.00
2018-07-15T09:42:55.790Z,30.90
2018-07-15T09:45:24.967Z,29.90
2018-07-15T09:47:54.156Z,29.90
2018-07-15T09:50:23.693Z,29.80
2018-07-15T09:52:53.132Z,30.00
2018-07-15T09:55:22.471Z,29.60
2018-07-15T10:01:23.199Z,29.60
2018-07-15T10:03:52.561Z,27.90
2018-07-15T10:06:22.387Z,27.60
2018-07-15T10:08:51.962Z,27.20
2018-07-15T10:11:22.200Z,28.00
2018-07-15T10:13:51.507Z,26.50
2018-07-15T10:16:20.909Z,26.70
2018-07-15T10:18:50.273Z,26.80
2018-07-15T10:21:19.503Z,26.40
2018-07-15T10:23:48.804Z,26.90
2018-07-15T10:26:18.510Z,26.60
2018-07-15T10:28:48.173Z,25.80
2018-07-15T10:31:17.344Z,26.60
2018-07-15T10:33:46.568Z,26.30
2018-07-15T10:36:17.327Z,27.50
2018-07-15T10:38:46.715Z,28.90
2018-07-15T10:41:16.096Z,27.30
2018-07-15T10:43:45.351Z,26.90
2018-07-15T10:46:14.445Z,24.40
2018-07-15T10:48:43.698Z,24.90
2018-07-15T10:51:13.102Z,25.70
2018-07-15T10:53:42.337Z,24.70
2018-07-15T10:56:11.522Z,25.70
2018-07-15T10:58:40.710Z,25.40
2018-07-15T11:01:10.058Z,24.90
2018-07-15T11:03:39.452Z,25.50
2018-07-15T11:06:08.714Z,25.70
2018-07-15T11:08:37.833Z,25.80
2018-07-15T11:11:07.217Z,24.00
2018-07-15T11:13:36.516Z,25.10
2018-07-15T11:16:06.007Z,24.30
2018-07-15T11:18:35.242Z,23.70
2018-07-15T11:21:04.666Z,24.50
2018-07-15T11:23:34.071Z,24.60
2018-07-15T11:26:03.511Z,25.30
2018-07-15T11:28:32.839Z,25.20
2018-07-15T11:31:02.358Z,24.90
2018-07-15T11:33:32.562Z,23.30
2018-07-15T11:36:01.880Z,23.30
2018-07-15T11:38:31.157Z,23.20
2018-07-15T11:41:00.437Z,23.00
2018-07-15T11:43:29.796Z,24.80
2018-07-15T11:45:59.126Z,24.20
2018-07-15T11:48:28.474Z,24.20
2018-07-15T11:50:57.889Z,25.50
2018-07-15T11:53:27.170Z,24.70
2018-07-15T11:55:56.482Z,25.10
2018-07-15T11:58:25.612Z,24.50
2018-07-15T12:00:54.875Z,24.30
2018-07-15T12:03:24.180Z,23.00
2018-07-15T12:05:53.705Z,22.80
2018-07-15T12:08:22.906Z,24.10
2018-07-15T12:10:52.282Z,23.40
2018-07-15T12:13:21.585Z,23.90
2018-07-15T12:15:51.103Z,24.60
2018-07-15T12:18:20.379Z,23.80
2018-07-15T12:20:49.793Z,24.50
2018-07-15T12:23:19.010Z,25.00
2018-07-15T12:25:48.348Z,25.30
2018-07-15T12:28:17.813Z,24.80
2018-07-15T12:30:46.986Z,26.20
2018-07-15T12:33:16.320Z,24.50
2018-07-15T12:35:45.516Z,24.80
2018-07-15T12:38:14.821Z,25.00
2018-07-15T12:40:44.135Z,25.80
2018-07-15T12:43:13.469Z,25.80
2018-07-15T12:45:42.843Z,26.00
2018-07-15T12:48:12.170Z,26.50
2018-07-15T12:50:41.394Z,26.90
2018-07-15T12:53:10.713Z,26.90
2018-07-15T12:55:39.986Z,27.70
2018-07-15T12:58:09.340Z,27.00
2018-07-15T13:00:38.714Z,28.00
2018-07-15T13:03:08.197Z,27.50
2018-07-15T13:05:37.588Z,26.70
2018-07-15T13:08:07.001Z,28.10
2018-07-15T13:10:36.255Z,26.50
2018-07-15T13:13:05.538Z,28.70
2018-07-15T13:15:34.884Z,27.80
2018-07-15T13:18:04.347Z,28.10
2018-07-15T13:20:33.676Z,28.20
2018-07-15T13:23:03.041Z,27.60
2018-07-15T13:25:32.619Z,28.30
2018-07-15T13:28:01.957Z,28.60
2018-07-15T13:30:31.288Z,28.20
2018-07-15T13:33:00.588Z,28.90
2018-07-15T13:35:30.059Z,28.50
2018-07-15T13:37:59.331Z,28.30
2018-07-15T13:40:28.706Z,28.60
2018-07-15T13:42:58.045Z,28.90
2018-07-15T13:45:27.745Z,29.70
2018-07-15T13:47:57.111Z,29.40
2018-07-15T13:50:26.358Z,29.50
2018-07-15T13:52:55.529Z,29.00
2018-07-15T13:55:25.136Z,28.90
2018-07-15T13:57:54.805Z,28.80
2018-07-15T14:00:24.191Z,29.40
2018-07-15T14:02:53.539Z,29.50
2018-07-15T14:08:03.140Z,29.90
2018-07-15T14:10:32.385Z,29.00
2018-07-15T14:13:01.815Z,29.20
2018-07-15T14:15:31.079Z,29.40
2018-07-15T14:18:00.310Z,29.50
2018-07-15T14:20:29.564Z,30.00
2018-07-15T14:22:59.027Z,29.60
2018-07-15T14:25:28.384Z,30.10
2018-07-15T14:27:57.777Z,29.70
2018-07-15T14:30:27.034Z,29.80
2018-07-15T14:32:56.431Z,31.20
2018-07-15T14:35:25.751Z,32.90
2018-07-15T14:37:55.161Z,31.90
2018-07-15T14:40:24.378Z,30.50
2018-07-15T14:42:53.508Z,31.70
2018-07-15T14:45:22.823Z,31.80
2018-07-15T14:47:52.147Z,31.40
2018-07-15T14:50:21.426Z,31.90
2018-07-15T14:52:50.842Z,32.00
2018-07-15T14:55:20.248Z,30.10
2018-07-15T15:52:36.054Z,34.50
2018-07-15T15:55:05.512Z,35.50
2018-07-15T15:57:34.891Z,31.50
2018-07-15T16:00:04.320Z,32.20
2018-07-15T17:19:43.001Z,38.70
2018-07-15T18:26:33.160Z,44.90
2018-07-15T18:32:03.428Z,45.70
2018-07-15T18:48:24.528Z,47.40
2018-07-15T18:50:55.436Z,47.70
2018-07-15T18:53:24.979Z,47.80
2018-07-15T18:55:56.132Z,48.20
2018-07-15T19:02:01.634Z,48.80
2018-07-15T19:04:33.263Z,49.10
2018-07-15T19:14:38.495Z,49.80
2018-07-15T19:19:52.365Z,50.20
2018-07-15T19:22:25.022Z,50.20
2018-07-15T19:25:13.367Z,50.60
2018-07-15T19:27:57.020Z,50.60
2018-07-15T19:30:29.764Z,50.70
2018-07-15T19:33:02.706Z,50.70
2018-07-15T19:35:45.627Z,51.10
2018-07-15T19:57:35.673Z,51.90
2018-07-15T20:02:52.028Z,52.10
2018-07-15T20:08:04.108Z,52.20
2018-07-15T20:10:33.744Z,52.70
2018-07-15T20:13:03.166Z,52.50
2018-07-15T20:15:32.551Z,52.00
2018-07-15T20:18:01.733Z,52.10
2018-07-15T20:20:30.998Z,52.50
2018-07-15T20:23:00.055Z,52.10
2018-07-15T20:25:29.274Z,52.20
2018-07-15T20:27:58.466Z,52.30
2018-07-15T20:30:27.715Z,52.50
2018-07-15T20:32:57.166Z,52.80
2018-07-15T20:35:26.541Z,53.40
2018-07-15T20:37:55.952Z,53.00
2018-07-15T20:40:25.239Z,53.10
2018-07-15T20:42:54.666Z,53.20
2018-07-15T20:45:25.056Z,53.30
2018-07-15T20:47:54.417Z,53.40
2018-07-15T20:50:23.775Z,53.60
2018-07-15T20:52:53.197Z,54.00
2018-07-15T20:55:23.778Z,53.90
2018-07-15T20:57:53.621Z,53.90
2018-07-15T21:00:23.034Z,54.70
2018-07-15T21:02:52.352Z,54.10
2018-07-15T21:05:21.563Z,54.30
2018-07-15T21:07:51.336Z,54.50
2018-07-15T21:10:20.752Z,54.90
2018-07-15T21:12:49.998Z,55.00
2018-07-15T21:15:19.362Z,54.80
2018-07-15T21:17:48.742Z,55.10
2018-07-15T21:20:18.152Z,55.10
2018-07-15T21:22:47.284Z,55.20
2018-07-15T21:25:16.451Z,55.30
2018-07-15T21:27:46.751Z,55.50
2018-07-15T21:30:20.213Z,55.70
2018-07-15T21:32:50.353Z,56.70
2018-07-15T21:35:19.578Z,56.50
2018-07-15T21:37:48.860Z,56.70
2018-07-15T21:40:18.069Z,56.70
2018-07-15T21:42:47.322Z,58.20
2018-07-15T21:45:17.297Z,56.30
2018-07-15T21:47:47.032Z,57.10
2018-07-15T21:50:17.339Z,56.60
2018-07-15T21:52:46.503Z,56.60
2018-07-15T21:55:15.927Z,56.50
2018-07-15T21:57:45.358Z,57.30
2018-07-15T22:00:15.321Z,56.80
2018-07-15T22:02:44.430Z,56.60
2018-07-15T22:05:13.671Z,56.40
2018-07-15T22:07:53.653Z,56.60
2018-07-15T22:10:43.964Z,56.50
2018-07-15T22:13:13.224Z,57.00
2018-07-15T22:15:42.585Z,56.50
2018-07-15T22:18:11.984Z,57.00
2018-07-15T22:20:41.286Z,58.10
2018-07-15T22:23:10.572Z,58.60
2018-07-15T22:25:40.508Z,59.30
2018-07-15T22:28:10.010Z,59.60
2018-07-15T22:30:39.126Z,60.20
2018-07-15T22:33:08.424Z,60.60
2018-07-15T22:35:38.037Z,60.90
2018-07-15T22:38:09.851Z,61.60
2018-07-15T22:40:39.300Z,61.90
2018-07-15T22:43:08.773Z,62.90
2018-07-15T22:45:39.254Z,64.10
2018-07-15T22:48:08.509Z,63.50
2018-07-15T22:50:38.124Z,63.50
2018-07-15T22:53:08.158Z,63.60
2018-07-15T22:55:37.363Z,64.20
2018-07-15T22:58:06.685Z,64.20
2018-07-15T23:00:36.144Z,64.00
2018-07-15T23:03:05.369Z,63.00
2018-07-15T23:05:47.400Z,62.50
2018-07-15T23:08:17.080Z,62.00
2018-07-15T23:10:46.689Z,62.90
2018-07-15T23:13:16.694Z,62.80
2018-07-15T23:15:46.174Z,61.70
2018-07-15T23:18:15.467Z,61.50
2018-07-15T23:20:45.466Z,62.40
2018-07-15T23:23:15.062Z,62.90
2018-07-15T23:25:44.376Z,63.20
2018-07-15T23:28:14.598Z,63.00
2018-07-15T23:30:44.146Z,63.50
2018-07-15T23:33:13.758Z,63.70
2018-07-15T23:35:43.118Z,63.80
2018-07-15T23:38:13.606Z,63.90
2018-07-15T23:40:43.060Z,63.90
2018-07-15T23:43:12.209Z,64.20
2018-07-15T23:45:41.493Z,63.80
2018-07-15T23:48:11.292Z,63.90
2018-07-15T23:50:40.829Z,64.40
2018-07-15T23:53:09.992Z,64.70
2018-07-15T23:55:39.177Z,65.10
2018-07-15T23:58:08.429Z,65.00
